sensor_id;sensor_type;location;lat;lon;timestamp;P1;durP1;ratioP1;P2;durP2;ratioP2
43487;SDS011;29078;41.932;25.554;2022-07-29T00:00:22;9.93;;;5.85;;
43487;SDS011;29078;41.932;25.554;2022-07-29T00:02:47;7.20;;;5.80;;
43487;SDS011;29078;41.932;25.554;2022-07-29T00:05:13;7.43;;;5.32;;
43487;SDS011;29078;41.932;25.554;2022-07-29T00:07:38;5.90;;;5.30;;
43487;SDS011;29078;41.932;25.554;2022-07-29T00:10:05;10.73;;;5.32;;
43487;SDS011;29078;41.932;25.554;2022-07-29T00:12:30;6.47;;;4.90;;
43487;SDS011;29078;41.932;25.554;2022-07-29T00:14:56;9.00;;;5.25;;
43487;SDS011;29078;41.932;25.554;2022-07-29T00:17:22;6.00;;;4.60;;
43487;SDS011;29078;41.932;25.554;2022-07-29T00:19:48;7.60;;;4.97;;
43487;SDS011;29078;41.932;25.554;2022-07-29T00:22:14;7.88;;;5.35;;
43487;SDS011;29078;41.932;25.554;2022-07-29T00:24:39;9.02;;;6.30;;
43487;SDS011;29078;41.932;25.554;2022-07-29T00:27:05;11.60;;;7.93;;
43487;SDS011;29078;41.932;25.554;2022-07-29T00:29:31;9.73;;;7.72;;
43487;SDS011;29078;41.932;25.554;2022-07-29T00:31:56;11.40;;;9.73;;
43487;SDS011;29078;41.932;25.554;2022-07-29T00:34:21;11.98;;;10.45;;
43487;SDS011;29078;41.932;25.554;2022-07-29T00:37:05;11.68;;;9.50;;
43487;SDS011;29078;41.932;25.554;2022-07-29T00:39:31;10.48;;;7.85;;
43487;SDS011;29078;41.932;25.554;2022-07-29T00:41:56;7.30;;;5.95;;
43487;SDS011;29078;41.932;25.554;2022-07-29T00:44:22;6.65;;;5.00;;
43487;SDS011;29078;41.932;25.554;2022-07-29T00:46:47;6.32;;;4.10;;
43487;SDS011;29078;41.932;25.554;2022-07-29T00:49:12;6.25;;;5.05;;
43487;SDS011;29078;41.932;25.554;2022-07-29T00:51:38;7.70;;;5.68;;
43487;SDS011;29078;41.932;25.554;2022-07-29T00:54:04;5.43;;;4.57;;
43487;SDS011;29078;41.932;25.554;2022-07-29T00:56:30;5.50;;;5.00;;
43487;SDS011;29078;41.932;25.554;2022-07-29T00:58:57;6.25;;;5.40;;
43487;SDS011;29078;41.932;25.554;2022-07-29T01:01:23;7.28;;;6.53;;
43487;SDS011;29078;41.932;25.554;2022-07-29T01:03:48;10.40;;;5.45;;
43487;SDS011;29078;41.932;25.554;2022-07-29T01:06:15;7.15;;;5.20;;
43487;SDS011;29078;41.932;25.554;2022-07-29T01:08:43;4.68;;;4.15;;
43487;SDS011;29078;41.932;25.554;2022-07-29T01:11:09;4.88;;;4.35;;
43487;SDS011;29078;41.932;25.554;2022-07-29T01:13:35;6.50;;;4.85;;
43487;SDS011;29078;41.932;25.554;2022-07-29T01:16:07;5.32;;;4.47;;
43487;SDS011;29078;41.932;25.554;2022-07-29T01:18:44;5.32;;;4.38;;
43487;SDS011;29078;41.932;25.554;2022-07-29T01:29:55;7.88;;;5.47;;
43487;SDS011;29078;41.932;25.554;2022-07-29T01:32:24;10.68;;;5.60;;
43487;SDS011;29078;41.932;25.554;2022-07-29T01:34:54;6.70;;;5.80;;
43487;SDS011;29078;41.932;25.554;2022-07-29T01:37:28;7.30;;;5.05;;
43487;SDS011;29078;41.932;25.554;2022-07-29T01:39:58;5.15;;;4.63;;
43487;SDS011;29078;41.932;25.554;2022-07-29T01:42:41;5.47;;;4.50;;
43487;SDS011;29078;41.932;25.554;2022-07-29T01:45:13;6.15;;;5.18;;
43487;SDS011;29078;41.932;25.554;2022-07-29T01:47:43;5.80;;;4.72;;
43487;SDS011;29078;41.932;25.554;2022-07-29T01:50:12;6.38;;;5.10;;
43487;SDS011;29078;41.932;25.554;2022-07-29T01:52:49;6.65;;;5.28;;
43487;SDS011;29078;41.932;25.554;2022-07-29T01:55:20;8.98;;;5.32;;
43487;SDS011;29078;41.932;25.554;2022-07-29T01:57:50;6.25;;;4.85;;
43487;SDS011;29078;41.932;25.554;2022-07-29T02:00:16;6.43;;;4.75;;
43487;SDS011;29078;41.932;25.554;2022-07-29T02:02:43;8.80;;;4.82;;
43487;SDS011;29078;41.932;25.554;2022-07-29T02:05:12;5.45;;;4.63;;
43487;SDS011;29078;41.932;25.554;2022-07-29T02:07:41;7.63;;;5.10;;
43487;SDS011;29078;41.932;25.554;2022-07-29T02:10:08;5.80;;;5.22;;
43487;SDS011;29078;41.932;25.554;2022-07-29T02:12:35;7.25;;;4.75;;
43487;SDS011;29078;41.932;25.554;2022-07-29T02:15:03;7.38;;;5.07;;
43487;SDS011;29078;41.932;25.554;2022-07-29T02:17:32;6.38;;;5.78;;
43487;SDS011;29078;41.932;25.554;2022-07-29T02:20:00;7.38;;;4.60;;
43487;SDS011;29078;41.932;25.554;2022-07-29T02:22:29;6.07;;;4.47;;
43487;SDS011;29078;41.932;25.554;2022-07-29T02:24:56;7.13;;;4.90;;
43487;SDS011;29078;41.932;25.554;2022-07-29T02:27:23;5.40;;;4.40;;
43487;SDS011;29078;41.932;25.554;2022-07-29T02:29:52;7.45;;;4.70;;
43487;SDS011;29078;41.932;25.554;2022-07-29T02:32:19;6.82;;;4.68;;
43487;SDS011;29078;41.932;25.554;2022-07-29T02:34:48;5.68;;;5.10;;
43487;SDS011;29078;41.932;25.554;2022-07-29T02:37:16;5.95;;;5.28;;
43487;SDS011;29078;41.932;25.554;2022-07-29T02:39:43;5.50;;;5.00;;
43487;SDS011;29078;41.932;25.554;2022-07-29T02:42:11;5.68;;;4.80;;
43487;SDS011;29078;41.932;25.554;2022-07-29T02:44:39;6.88;;;5.03;;
43487;SDS011;29078;41.932;25.554;2022-07-29T02:53:07;9.00;;;4.93;;
43487;SDS011;29078;41.932;25.554;2022-07-29T02:55:41;5.03;;;4.43;;
43487;SDS011;29078;41.932;25.554;2022-07-29T03:00:56;7.10;;;5.60;;
43487;SDS011;29078;41.932;25.554;2022-07-29T03:03:25;5.72;;;4.78;;
43487;SDS011;29078;41.932;25.554;2022-07-29T03:05:55;8.10;;;5.18;;
43487;SDS011;29078;41.932;25.554;2022-07-29T03:08:22;6.40;;;5.20;;
43487;SDS011;29078;41.932;25.554;2022-07-29T03:10:49;7.25;;;5.15;;
43487;SDS011;29078;41.932;25.554;2022-07-29T03:13:16;8.85;;;5.75;;
43487;SDS011;29078;41.932;25.554;2022-07-29T03:15:43;7.15;;;5.40;;
43487;SDS011;29078;41.932;25.554;2022-07-29T03:18:09;7.25;;;5.03;;
43487;SDS011;29078;41.932;25.554;2022-07-29T03:20:36;8.27;;;5.47;;
43487;SDS011;29078;41.932;25.554;2022-07-29T03:23:03;6.15;;;5.10;;
43487;SDS011;29078;41.932;25.554;2022-07-29T03:25:29;7.50;;;5.70;;
43487;SDS011;29078;41.932;25.554;2022-07-29T03:27:55;9.50;;;5.40;;
43487;SDS011;29078;41.932;25.554;2022-07-29T03:30:21;7.55;;;5.47;;
43487;SDS011;29078;41.932;25.554;2022-07-29T03:32:47;10.00;;;5.00;;
43487;SDS011;29078;41.932;25.554;2022-07-29T03:35:12;6.45;;;5.25;;
43487;SDS011;29078;41.932;25.554;2022-07-29T03:37:38;8.00;;;5.75;;
43487;SDS011;29078;41.932;25.554;2022-07-29T03:40:05;7.60;;;5.50;;
43487;SDS011;29078;41.932;25.554;2022-07-29T03:42:33;10.00;;;5.72;;
43487;SDS011;29078;41.932;25.554;2022-07-29T03:45:02;6.32;;;5.32;;
43487;SDS011;29078;41.932;25.554;2022-07-29T03:47:31;8.38;;;5.82;;
43487;SDS011;29078;41.932;25.554;2022-07-29T03:50:00;8.80;;;5.90;;
43487;SDS011;29078;41.932;25.554;2022-07-29T03:52:30;7.50;;;6.32;;
43487;SDS011;29078;41.932;25.554;2022-07-29T03:54:56;8.65;;;6.65;;
43487;SDS011;29078;41.932;25.554;2022-07-29T03:57:23;7.90;;;5.95;;
43487;SDS011;29078;41.932;25.554;2022-07-29T03:59:51;7.15;;;5.72;;
43487;SDS011;29078;41.932;25.554;2022-07-29T04:02:17;8.40;;;6.50;;
43487;SDS011;29078;41.932;25.554;2022-07-29T04:04:42;9.75;;;6.85;;
43487;SDS011;29078;41.932;25.554;2022-07-29T04:07:11;9.30;;;7.03;;
43487;SDS011;29078;41.932;25.554;2022-07-29T04:09:40;8.63;;;7.05;;
43487;SDS011;29078;41.932;25.554;2022-07-29T04:12:05;8.27;;;6.88;;
43487;SDS011;29078;41.932;25.554;2022-07-29T04:14:31;8.75;;;7.80;;
43487;SDS011;29078;41.932;25.554;2022-07-29T04:16:58;9.77;;;7.00;;
43487;SDS011;29078;41.932;25.554;2022-07-29T04:19:24;8.93;;;7.38;;
43487;SDS011;29078;41.932;25.554;2022-07-29T04:21:49;8.82;;;7.35;;
43487;SDS011;29078;41.932;25.554;2022-07-29T04:24:15;9.63;;;6.78;;
43487;SDS011;29078;41.932;25.554;2022-07-29T04:26:40;8.05;;;7.03;;
43487;SDS011;29078;41.932;25.554;2022-07-29T04:29:06;8.27;;;7.10;;
43487;SDS011;29078;41.932;25.554;2022-07-29T04:31:31;8.27;;;7.30;;
43487;SDS011;29078;41.932;25.554;2022-07-29T04:33:57;8.90;;;7.30;;
43487;SDS011;29078;41.932;25.554;2022-07-29T04:36:22;10.13;;;6.45;;
43487;SDS011;29078;41.932;25.554;2022-07-29T04:38:47;9.20;;;6.30;;
43487;SDS011;29078;41.932;25.554;2022-07-29T04:41:13;7.82;;;5.75;;
43487;SDS011;29078;41.932;25.554;2022-07-29T04:43:39;7.15;;;5.55;;
43487;SDS011;29078;41.932;25.554;2022-07-29T04:46:05;10.07;;;6.85;;
43487;SDS011;29078;41.932;25.554;2022-07-29T04:48:31;9.38;;;6.00;;
43487;SDS011;29078;41.932;25.554;2022-07-29T04:50:57;10.10;;;6.05;;
43487;SDS011;29078;41.932;25.554;2022-07-29T04:53:22;8.23;;;5.68;;
43487;SDS011;29078;41.932;25.554;2022-07-29T04:55:48;7.55;;;5.68;;
43487;SDS011;29078;41.932;25.554;2022-07-29T04:58:14;9.93;;;6.60;;
43487;SDS011;29078;41.932;25.554;2022-07-29T05:00:39;9.27;;;5.95;;
43487;SDS011;29078;41.932;25.554;2022-07-29T05:03:05;10.02;;;5.22;;
43487;SDS011;29078;41.932;25.554;2022-07-29T05:05:31;8.38;;;5.35;;
43487;SDS011;29078;41.932;25.554;2022-07-29T05:07:56;6.63;;;5.50;;
43487;SDS011;29078;41.932;25.554;2022-07-29T05:10:22;6.20;;;4.80;;
43487;SDS011;29078;41.932;25.554;2022-07-29T05:12:47;7.60;;;4.72;;
43487;SDS011;29078;41.932;25.554;2022-07-29T05:15:13;9.93;;;4.60;;
43487;SDS011;29078;41.932;25.554;2022-07-29T05:17:39;5.80;;;4.25;;
43487;SDS011;29078;41.932;25.554;2022-07-29T05:20:04;7.47;;;4.63;;
43487;SDS011;29078;41.932;25.554;2022-07-29T05:22:31;5.72;;;4.05;;
43487;SDS011;29078;41.932;25.554;2022-07-29T05:24:56;5.07;;;4.18;;
43487;SDS011;29078;41.932;25.554;2022-07-29T05:27:22;10.75;;;5.28;;
43487;SDS011;29078;41.932;25.554;2022-07-29T05:29:47;8.55;;;4.50;;
43487;SDS011;29078;41.932;25.554;2022-07-29T05:32:13;6.30;;;4.30;;
43487;SDS011;29078;41.932;25.554;2022-07-29T05:34:38;6.97;;;4.22;;
43487;SDS011;29078;41.932;25.554;2022-07-29T05:37:04;6.07;;;3.95;;
43487;SDS011;29078;41.932;25.554;2022-07-29T05:39:30;3.97;;;3.55;;
43487;SDS011;29078;41.932;25.554;2022-07-29T05:41:55;6.45;;;3.70;;
43487;SDS011;29078;41.932;25.554;2022-07-29T05:44:20;6.18;;;3.90;;
43487;SDS011;29078;41.932;25.554;2022-07-29T05:46:46;5.53;;;3.75;;
43487;SDS011;29078;41.932;25.554;2022-07-29T05:49:11;7.43;;;3.88;;
43487;SDS011;29078;41.932;25.554;2022-07-29T05:51:37;5.75;;;3.30;;
43487;SDS011;29078;41.932;25.554;2022-07-29T05:54:02;3.92;;;3.42;;
43487;SDS011;29078;41.932;25.554;2022-07-29T05:56:28;7.68;;;3.90;;
43487;SDS011;29078;41.932;25.554;2022-07-29T05:58:54;5.47;;;4.10;;
43487;SDS011;29078;41.932;25.554;2022-07-29T06:01:19;5.53;;;3.55;;
43487;SDS011;29078;41.932;25.554;2022-07-29T06:03:45;7.10;;;4.07;;
43487;SDS011;29078;41.932;25.554;2022-07-29T06:06:10;6.55;;;4.00;;
43487;SDS011;29078;41.932;25.554;2022-07-29T06:08:36;4.57;;;4.15;;
43487;SDS011;29078;41.932;25.554;2022-07-29T06:11:02;4.35;;;3.95;;
43487;SDS011;29078;41.932;25.554;2022-07-29T06:13:29;5.65;;;4.63;;
43487;SDS011;29078;41.932;25.554;2022-07-29T06:15:54;6.90;;;4.53;;
43487;SDS011;29078;41.932;25.554;2022-07-29T06:18:20;5.38;;;4.72;;
43487;SDS011;29078;41.932;25.554;2022-07-29T06:20:48;6.35;;;5.40;;
43487;SDS011;29078;41.932;25.554;2022-07-29T06:23:18;4.50;;;4.10;;
43487;SDS011;29078;41.932;25.554;2022-07-29T06:25:44;5.28;;;4.30;;
43487;SDS011;29078;41.932;25.554;2022-07-29T06:28:09;5.28;;;4.38;;
43487;SDS011;29078;41.932;25.554;2022-07-29T06:30:35;5.93;;;4.25;;
43487;SDS011;29078;41.932;25.554;2022-07-29T06:33:01;6.53;;;4.55;;
43487;SDS011;29078;41.932;25.554;2022-07-29T06:35:27;5.65;;;4.35;;
43487;SDS011;29078;41.932;25.554;2022-07-29T06:37:52;8.20;;;4.10;;
43487;SDS011;29078;41.932;25.554;2022-07-29T06:40:18;5.07;;;4.57;;
43487;SDS011;29078;41.932;25.554;2022-07-29T06:43:02;5.10;;;3.72;;
43487;SDS011;29078;41.932;25.554;2022-07-29T06:45:28;4.20;;;3.75;;
43487;SDS011;29078;41.932;25.554;2022-07-29T06:47:53;10.82;;;6.45;;
43487;SDS011;29078;41.932;25.554;2022-07-29T06:50:19;5.15;;;3.70;;
43487;SDS011;29078;41.932;25.554;2022-07-29T06:52:46;9.25;;;4.15;;
43487;SDS011;29078;41.932;25.554;2022-07-29T06:55:12;9.27;;;4.50;;
43487;SDS011;29078;41.932;25.554;2022-07-29T06:57:37;12.75;;;4.78;;
43487;SDS011;29078;41.932;25.554;2022-07-29T07:00:03;7.10;;;4.35;;
43487;SDS011;29078;41.932;25.554;2022-07-29T07:02:30;9.07;;;4.32;;
43487;SDS011;29078;41.932;25.554;2022-07-29T07:04:55;6.85;;;4.45;;
43487;SDS011;29078;41.932;25.554;2022-07-29T07:07:21;7.15;;;5.88;;
43487;SDS011;29078;41.932;25.554;2022-07-29T07:09:46;7.95;;;5.82;;
43487;SDS011;29078;41.932;25.554;2022-07-29T07:12:11;5.95;;;5.03;;
43487;SDS011;29078;41.932;25.554;2022-07-29T07:14:37;8.85;;;8.00;;
43487;SDS011;29078;41.932;25.554;2022-07-29T07:17:02;6.32;;;4.20;;
43487;SDS011;29078;41.932;25.554;2022-07-29T07:19:28;5.43;;;4.47;;
43487;SDS011;29078;41.932;25.554;2022-07-29T07:21:54;5.05;;;4.30;;
43487;SDS011;29078;41.932;25.554;2022-07-29T07:24:19;7.43;;;4.28;;
43487;SDS011;29078;41.932;25.554;2022-07-29T07:26:45;6.63;;;4.72;;
43487;SDS011;29078;41.932;25.554;2022-07-29T07:29:10;4.20;;;3.22;;
43487;SDS011;29078;41.932;25.554;2022-07-29T07:31:36;6.00;;;4.03;;
43487;SDS011;29078;41.932;25.554;2022-07-29T07:34:02;4.35;;;3.95;;
43487;SDS011;29078;41.932;25.554;2022-07-29T07:36:28;7.43;;;3.75;;
43487;SDS011;29078;41.932;25.554;2022-07-29T07:38:53;5.20;;;3.80;;
43487;SDS011;29078;41.932;25.554;2022-07-29T07:41:19;7.13;;;4.30;;
43487;SDS011;29078;41.932;25.554;2022-07-29T07:43:45;5.07;;;4.57;;
43487;SDS011;29078;41.932;25.554;2022-07-29T07:46:10;6.65;;;4.30;;
43487;SDS011;29078;41.932;25.554;2022-07-29T07:48:35;7.43;;;6.47;;
43487;SDS011;29078;41.932;25.554;2022-07-29T07:51:01;4.10;;;3.80;;
43487;SDS011;29078;41.932;25.554;2022-07-29T07:53:26;6.40;;;5.13;;
43487;SDS011;29078;41.932;25.554;2022-07-29T07:55:52;5.95;;;5.35;;
43487;SDS011;29078;41.932;25.554;2022-07-29T07:58:17;9.15;;;4.85;;
43487;SDS011;29078;41.932;25.554;2022-07-29T08:00:43;4.28;;;3.50;;
43487;SDS011;29078;41.932;25.554;2022-07-29T08:03:08;10.95;;;7.55;;
43487;SDS011;29078;41.932;25.554;2022-07-29T08:05:37;8.90;;;6.40;;
43487;SDS011;29078;41.932;25.554;2022-07-29T08:08:03;7.15;;;5.38;;
43487;SDS011;29078;41.932;25.554;2022-07-29T08:10:28;6.45;;;4.88;;
43487;SDS011;29078;41.932;25.554;2022-07-29T08:13:12;4.95;;;4.05;;
43487;SDS011;29078;41.932;25.554;2022-07-29T08:15:38;4.63;;;3.42;;
43487;SDS011;29078;41.932;25.554;2022-07-29T08:18:05;7.03;;;5.22;;
43487;SDS011;29078;41.932;25.554;2022-07-29T08:20:31;6.43;;;4.68;;
43487;SDS011;29078;41.932;25.554;2022-07-29T08:22:58;10.48;;;5.28;;
43487;SDS011;29078;41.932;25.554;2022-07-29T08:25:24;5.68;;;4.47;;
43487;SDS011;29078;41.932;25.554;2022-07-29T08:27:52;5.72;;;4.85;;
43487;SDS011;29078;41.932;25.554;2022-07-29T08:30:18;5.40;;;5.00;;
43487;SDS011;29078;41.932;25.554;2022-07-29T08:32:43;7.50;;;4.63;;
43487;SDS011;29078;41.932;25.554;2022-07-29T08:35:09;5.93;;;5.32;;
43487;SDS011;29078;41.932;25.554;2022-07-29T08:37:34;8.10;;;5.38;;
43487;SDS011;29078;41.932;25.554;2022-07-29T08:40:00;7.70;;;5.05;;
43487;SDS011;29078;41.932;25.554;2022-07-29T08:42:25;7.00;;;5.07;;
43487;SDS011;29078;41.932;25.554;2022-07-29T08:44:50;8.27;;;5.68;;
43487;SDS011;29078;41.932;25.554;2022-07-29T08:47:16;6.72;;;4.50;;
43487;SDS011;29078;41.932;25.554;2022-07-29T08:49:42;5.25;;;4.20;;
43487;SDS011;29078;41.932;25.554;2022-07-29T08:52:10;6.72;;;5.18;;
43487;SDS011;29078;41.932;25.554;2022-07-29T08:54:37;6.30;;;4.00;;
43487;SDS011;29078;41.932;25.554;2022-07-29T08:57:05;4.63;;;4.03;;
43487;SDS011;29078;41.932;25.554;2022-07-29T08:59:31;11.13;;;4.53;;
43487;SDS011;29078;41.932;25.554;2022-07-29T09:01:59;6.30;;;4.68;;
43487;SDS011;29078;41.932;25.554;2022-07-29T09:04:26;8.00;;;6.05;;
43487;SDS011;29078;41.932;25.554;2022-07-29T09:06:55;6.72;;;6.03;;
43487;SDS011;29078;41.932;25.554;2022-07-29T09:09:25;5.85;;;4.18;;
43487;SDS011;29078;41.932;25.554;2022-07-29T09:11:51;7.65;;;4.65;;
43487;SDS011;29078;41.932;25.554;2022-07-29T09:14:18;7.15;;;4.20;;
43487;SDS011;29078;41.932;25.554;2022-07-29T09:16:46;6.47;;;4.18;;
43487;SDS011;29078;41.932;25.554;2022-07-29T09:19:20;10.30;;;6.18;;
43487;SDS011;29078;41.932;25.554;2022-07-29T09:21:46;5.65;;;5.10;;
43487;SDS011;29078;41.932;25.554;2022-07-29T09:24:25;5.38;;;4.97;;
43487;SDS011;29078;41.932;25.554;2022-07-29T09:26:59;9.40;;;6.75;;
43487;SDS011;29078;41.932;25.554;2022-07-29T09:29:25;7.75;;;6.43;;
43487;SDS011;29078;41.932;25.554;2022-07-29T09:31:53;6.80;;;6.18;;
43487;SDS011;29078;41.932;25.554;2022-07-29T09:34:26;5.45;;;4.85;;
43487;SDS011;29078;41.932;25.554;2022-07-29T09:36:54;8.38;;;6.18;;
43487;SDS011;29078;41.932;25.554;2022-07-29T09:39:30;5.30;;;4.80;;
43487;SDS011;29078;41.932;25.554;2022-07-29T09:42:04;6.75;;;6.05;;
43487;SDS011;29078;41.932;25.554;2022-07-29T09:47:06;5.63;;;5.13;;
43487;SDS011;29078;41.932;25.554;2022-07-29T09:49:32;4.72;;;4.20;;
43487;SDS011;29078;41.932;25.554;2022-07-29T09:54:32;7.53;;;6.80;;
43487;SDS011;29078;41.932;25.554;2022-07-29T09:57:02;7.85;;;6.65;;
43487;SDS011;29078;41.932;25.554;2022-07-29T09:59:29;5.43;;;4.43;;
43487;SDS011;29078;41.932;25.554;2022-07-29T10:01:55;10.27;;;4.93;;
43487;SDS011;29078;41.932;25.554;2022-07-29T10:04:21;6.22;;;4.85;;
43487;SDS011;29078;41.932;25.554;2022-07-29T10:06:59;6.50;;;4.80;;
43487;SDS011;29078;41.932;25.554;2022-07-29T10:09:27;4.82;;;4.43;;
43487;SDS011;29078;41.932;25.554;2022-07-29T10:12:07;4.50;;;4.07;;
43487;SDS011;29078;41.932;25.554;2022-07-29T10:14:36;7.25;;;4.47;;
43487;SDS011;29078;41.932;25.554;2022-07-29T10:17:03;4.70;;;3.85;;
43487;SDS011;29078;41.932;25.554;2022-07-29T10:19:30;6.07;;;4.95;;
43487;SDS011;29078;41.932;25.554;2022-07-29T10:21:59;5.82;;;3.25;;
43487;SDS011;29078;41.932;25.554;2022-07-29T10:24:26;5.47;;;3.88;;
43487;SDS011;29078;41.932;25.554;2022-07-29T10:26:56;6.22;;;4.05;;
43487;SDS011;29078;41.932;25.554;2022-07-29T10:29:23;6.78;;;4.15;;
43487;SDS011;29078;41.932;25.554;2022-07-29T10:34:44;5.03;;;4.32;;
43487;SDS011;29078;41.932;25.554;2022-07-29T10:40:22;6.50;;;3.78;;
43487;SDS011;29078;41.932;25.554;2022-07-29T10:43:24;6.80;;;3.70;;
43487;SDS011;29078;41.932;25.554;2022-07-29T10:45:57;4.45;;;3.97;;
43487;SDS011;29078;41.932;25.554;2022-07-29T10:48:24;5.45;;;3.53;;
43487;SDS011;29078;41.932;25.554;2022-07-29T10:50:57;3.55;;;3.00;;
43487;SDS011;29078;41.932;25.554;2022-07-29T10:53:46;3.80;;;3.50;;
43487;SDS011;29078;41.932;25.554;2022-07-29T10:56:23;5.05;;;3.65;;
43487;SDS011;29078;41.932;25.554;2022-07-29T11:01:43;3.33;;;3.03;;
43487;SDS011;29078;41.932;25.554;2022-07-29T11:04:09;3.72;;;3.40;;
43487;SDS011;29078;41.932;25.554;2022-07-29T11:09:32;5.63;;;4.57;;
43487;SDS011;29078;41.932;25.554;2022-07-29T11:11:58;4.30;;;3.33;;
43487;SDS011;29078;41.932;25.554;2022-07-29T11:17:19;5.15;;;4.55;;
43487;SDS011;29078;41.932;25.554;2022-07-29T11:19:45;5.28;;;3.95;;
43487;SDS011;29078;41.932;25.554;2022-07-29T11:22:11;5.72;;;3.40;;
43487;SDS011;29078;41.932;25.554;2022-07-29T11:25:14;3.00;;;2.78;;
43487;SDS011;29078;41.932;25.554;2022-07-29T11:27:41;7.43;;;3.70;;
43487;SDS011;29078;41.932;25.554;2022-07-29T11:30:07;6.65;;;3.80;;
43487;SDS011;29078;41.932;25.554;2022-07-29T11:32:38;3.67;;;3.33;;
43487;SDS011;29078;41.932;25.554;2022-07-29T11:35:21;6.85;;;3.10;;
43487;SDS011;29078;41.932;25.554;2022-07-29T11:43:47;2.75;;;2.45;;
43487;SDS011;29078;41.932;25.554;2022-07-29T11:49:06;4.40;;;3.92;;
43487;SDS011;29078;41.932;25.554;2022-07-29T11:51:33;4.32;;;3.72;;
43487;SDS011;29078;41.932;25.554;2022-07-29T11:54:00;6.57;;;4.13;;
43487;SDS011;29078;41.932;25.554;2022-07-29T11:56:26;4.18;;;3.63;;
43487;SDS011;29078;41.932;25.554;2022-07-29T11:59:03;4.22;;;3.83;;
43487;SDS011;29078;41.932;25.554;2022-07-29T12:01:30;4.78;;;3.50;;
43487;SDS011;29078;41.932;25.554;2022-07-29T12:04:03;7.65;;;3.25;;
43487;SDS011;29078;41.932;25.554;2022-07-29T12:06:33;4.57;;;3.90;;
43487;SDS011;29078;41.932;25.554;2022-07-29T12:08:59;5.75;;;3.85;;
43487;SDS011;29078;41.932;25.554;2022-07-29T12:11:25;9.65;;;3.70;;
43487;SDS011;29078;41.932;25.554;2022-07-29T12:13:51;4.90;;;3.50;;
43487;SDS011;29078;41.932;25.554;2022-07-29T12:16:17;5.57;;;3.85;;
43487;SDS011;29078;41.932;25.554;2022-07-29T12:18:54;5.38;;;3.85;;
43487;SDS011;29078;41.932;25.554;2022-07-29T12:21:23;5.32;;;3.60;;
43487;SDS011;29078;41.932;25.554;2022-07-29T12:23:55;4.50;;;3.13;;
43487;SDS011;29078;41.932;25.554;2022-07-29T12:26:21;6.82;;;4.72;;
43487;SDS011;29078;41.932;25.554;2022-07-29T12:28:48;5.47;;;4.00;;
43487;SDS011;29078;41.932;25.554;2022-07-29T12:31:14;4.93;;;4.32;;
43487;SDS011;29078;41.932;25.554;2022-07-29T12:33:40;6.40;;;4.43;;
43487;SDS011;29078;41.932;25.554;2022-07-29T12:36:06;7.10;;;6.22;;
43487;SDS011;29078;41.932;25.554;2022-07-29T12:38:33;5.20;;;3.40;;
43487;SDS011;29078;41.932;25.554;2022-07-29T12:40:59;3.17;;;2.88;;
43487;SDS011;29078;41.932;25.554;2022-07-29T12:43:25;3.45;;;3.15;;
43487;SDS011;29078;41.932;25.554;2022-07-29T12:45:52;4.95;;;3.15;;
43487;SDS011;29078;41.932;25.554;2022-07-29T12:51:07;8.68;;;3.70;;
43487;SDS011;29078;41.932;25.554;2022-07-29T12:53:34;3.33;;;3.03;;
43487;SDS011;29078;41.932;25.554;2022-07-29T12:56:00;8.95;;;3.50;;
43487;SDS011;29078;41.932;25.554;2022-07-29T12:58:35;4.90;;;3.70;;
43487;SDS011;29078;41.932;25.554;2022-07-29T13:03:29;5.63;;;4.20;;
43487;SDS011;29078;41.932;25.554;2022-07-29T13:06:06;6.95;;;5.00;;
43487;SDS011;29078;41.932;25.554;2022-07-29T13:08:31;3.40;;;3.10;;
43487;SDS011;29078;41.932;25.554;2022-07-29T13:10:56;7.05;;;5.78;;
43487;SDS011;29078;41.932;25.554;2022-07-29T13:13:22;5.40;;;3.58;;
43487;SDS011;29078;41.932;25.554;2022-07-29T13:15:53;3.95;;;3.58;;
43487;SDS011;29078;41.932;25.554;2022-07-29T13:18:34;3.60;;;2.88;;
43487;SDS011;29078;41.932;25.554;2022-07-29T13:21:12;3.10;;;2.67;;
43487;SDS011;29078;41.932;25.554;2022-07-29T13:23:41;7.13;;;2.55;;
43487;SDS011;29078;41.932;25.554;2022-07-29T13:26:10;4.75;;;3.08;;
43487;SDS011;29078;41.932;25.554;2022-07-29T13:28:36;5.25;;;3.30;;
43487;SDS011;29078;41.932;25.554;2022-07-29T13:31:02;4.57;;;2.95;;
43487;SDS011;29078;41.932;25.554;2022-07-29T13:33:29;3.05;;;2.85;;
43487;SDS011;29078;41.932;25.554;2022-07-29T13:35:55;5.40;;;3.10;;
43487;SDS011;29078;41.932;25.554;2022-07-29T13:38:20;3.95;;;2.60;;
43487;SDS011;29078;41.932;25.554;2022-07-29T13:40:46;5.38;;;2.70;;
43487;SDS011;29078;41.932;25.554;2022-07-29T13:43:12;2.60;;;2.40;;
43487;SDS011;29078;41.932;25.554;2022-07-29T13:45:38;3.75;;;2.53;;
43487;SDS011;29078;41.932;25.554;2022-07-29T13:48:03;5.70;;;2.92;;
43487;SDS011;29078;41.932;25.554;2022-07-29T13:50:29;5.28;;;2.47;;
43487;SDS011;29078;41.932;25.554;2022-07-29T13:52:54;2.97;;;2.70;;
43487;SDS011;29078;41.932;25.554;2022-07-29T13:55:20;3.95;;;2.75;;
43487;SDS011;29078;41.932;25.554;2022-07-29T13:57:45;6.97;;;2.83;;
43487;SDS011;29078;41.932;25.554;2022-07-29T14:00:12;3.40;;;3.10;;
43487;SDS011;29078;41.932;25.554;2022-07-29T14:02:38;5.00;;;4.50;;
43487;SDS011;29078;41.932;25.554;2022-07-29T14:05:04;3.50;;;3.15;;
43487;SDS011;29078;41.932;25.554;2022-07-29T14:07:31;5.32;;;2.70;;
43487;SDS011;29078;41.932;25.554;2022-07-29T14:09:56;7.22;;;3.03;;
43487;SDS011;29078;41.932;25.554;2022-07-29T14:12:21;5.88;;;3.13;;
43487;SDS011;29078;41.932;25.554;2022-07-29T14:14:47;4.40;;;4.00;;
43487;SDS011;29078;41.932;25.554;2022-07-29T14:17:13;5.53;;;3.42;;
43487;SDS011;29078;41.932;25.554;2022-07-29T14:19:39;3.97;;;2.80;;
43487;SDS011;29078;41.932;25.554;2022-07-29T14:22:05;5.05;;;3.13;;
43487;SDS011;29078;41.932;25.554;2022-07-29T14:24:31;5.10;;;3.38;;
43487;SDS011;29078;41.932;25.554;2022-07-29T14:26:56;3.85;;;2.63;;
43487;SDS011;29078;41.932;25.554;2022-07-29T14:29:22;4.57;;;3.30;;
43487;SDS011;29078;41.932;25.554;2022-07-29T14:31:48;5.07;;;3.20;;
43487;SDS011;29078;41.932;25.554;2022-07-29T14:34:13;6.78;;;5.82;;
43487;SDS011;29078;41.932;25.554;2022-07-29T14:36:40;10.10;;;7.95;;
43487;SDS011;29078;41.932;25.554;2022-07-29T14:39:06;6.43;;;3.47;;
43487;SDS011;29078;41.932;25.554;2022-07-29T14:41:31;2.97;;;2.70;;
43487;SDS011;29078;41.932;25.554;2022-07-29T14:43:56;3.95;;;2.55;;
43487;SDS011;29078;41.932;25.554;2022-07-29T14:46:25;4.78;;;3.78;;
43487;SDS011;29078;41.932;25.554;2022-07-29T14:48:51;5.88;;;4.40;;
43487;SDS011;29078;41.932;25.554;2022-07-29T14:51:16;4.38;;;3.28;;
43487;SDS011;29078;41.932;25.554;2022-07-29T14:53:42;3.78;;;3.47;;
43487;SDS011;29078;41.932;25.554;2022-07-29T14:56:08;6.90;;;3.47;;
43487;SDS011;29078;41.932;25.554;2022-07-29T14:58:34;8.40;;;6.63;;
43487;SDS011;29078;41.932;25.554;2022-07-29T15:00:59;5.80;;;5.30;;
43487;SDS011;29078;41.932;25.554;2022-07-29T15:03:25;7.45;;;6.75;;
43487;SDS011;29078;41.932;25.554;2022-07-29T15:05:52;4.20;;;3.90;;
43487;SDS011;29078;41.932;25.554;2022-07-29T15:08:18;4.57;;;3.08;;
43487;SDS011;29078;41.932;25.554;2022-07-29T15:10:43;5.40;;;3.17;;
43487;SDS011;29078;41.932;25.554;2022-07-29T15:13:08;3.45;;;2.63;;
43487;SDS011;29078;41.932;25.554;2022-07-29T15:15:34;3.58;;;3.28;;
43487;SDS011;29078;41.932;25.554;2022-07-29T15:17:59;4.82;;;3.88;;
43487;SDS011;29078;41.932;25.554;2022-07-29T15:20:25;7.43;;;3.50;;
43487;SDS011;29078;41.932;25.554;2022-07-29T15:22:51;4.03;;;2.55;;
43487;SDS011;29078;41.932;25.554;2022-07-29T15:25:17;2.60;;;2.38;;